createdAt,value
2018-07-05T04:45:39.733Z,22.30
2018-07-05T04:46:45.977Z,22.27
2018-07-05T04:47:40.364Z,22.27
2018-07-05T04:48:42.179Z,22.27
2018-07-05T05:17:46.878Z,22.65
2018-07-05T08:01:43.092Z,27.71
2018-07-05T08:48:16.726Z,27.69
2018-07-05T08:49:17.489Z,27.69
2018-07-05T08:50:18.265Z,27.70
2018-07-05T08:51:19.047Z,27.71
2018-07-05T08:52:19.828Z,27.74
2018-07-05T08:53:20.618Z,27.79
2018-07-05T08:54:21.388Z,27.86
2018-07-05T08:55:22.158Z,27.94
2018-07-05T08:56:22.935Z,28.04
2018-07-05T08:57:23.710Z,28.16
2018-07-05T08:58:24.573Z,28.28
2018-07-05T08:59:24.296Z,28.41
2018-07-05T09:00:26.069Z,28.55
2018-07-05T09:01:26.847Z,28.70
2018-07-05T09:02:27.613Z,28.86
2018-07-05T09:03:28.416Z,29.02
2018-07-05T09:04:29.191Z,29.18
2018-07-05T09:05:29.961Z,29.35
2018-07-05T09:06:30.741Z,29.51
2018-07-05T09:07:31.519Z,29.65
2018-07-05T09:08:32.318Z,29.78
2018-07-05T09:09:33.090Z,29.91
2018-07-05T09:10:33.859Z,30.04
2018-07-05T09:11:34.637Z,30.15
2018-07-05T09:12:35.576Z,30.25
2018-07-05T09:13:35.299Z,30.36
2018-07-05T09:14:37.288Z,30.44
2018-07-05T09:15:37.069Z,30.53
2018-07-05T09:16:38.828Z,30.60
2018-07-05T09:17:39.727Z,30.66
2018-07-05T09:18:39.805Z,30.71
2018-07-05T09:19:39.512Z,30.76
2018-07-05T09:20:41.286Z,30.79
2018-07-05T09:21:42.059Z,30.81
2018-07-05T09:22:42.851Z,30.83
2018-07-05T09:23:43.671Z,30.87
2018-07-05T09:24:43.414Z,30.89
2018-07-05T09:25:45.177Z,30.89
2018-07-05T09:26:46.019Z,30.87
2018-07-05T09:27:45.727Z,30.84
2018-07-05T09:28:47.530Z,30.81
2018-07-05T09:29:48.308Z,30.78
2018-07-05T09:30:49.090Z,30.75
2018-07-05T09:31:49.868Z,30.71
2018-07-05T09:32:50.635Z,30.68
2018-07-05T09:33:51.435Z,30.65
2018-07-05T09:34:52.214Z,30.61
2018-07-05T09:35:52.988Z,30.59
2018-07-05T09:36:53.762Z,30.57
2018-07-05T09:37:54.535Z,30.57
2018-07-05T09:38:55.351Z,30.56
2018-07-05T09:39:56.117Z,30.53
2018-07-05T09:40:56.881Z,30.50
2018-07-05T09:41:57.656Z,30.46
2018-07-05T09:42:58.429Z,30.41
2018-07-05T09:43:59.232Z,30.36
2018-07-05T09:45:00.004Z,30.31
2018-07-05T09:46:00.781Z,30.26
2018-07-05T09:47:01.607Z,30.21
2018-07-05T09:48:01.331Z,30.17
2018-07-05T09:49:03.124Z,30.13
2018-07-05T09:50:03.903Z,30.09
2018-07-05T09:51:04.675Z,30.05
2018-07-05T09:52:05.692Z,30.03
2018-07-05T09:53:05.433Z,30.02
2018-07-05T09:54:07.321Z,30.02
2018-07-05T09:55:07.017Z,30.02
2018-07-05T09:56:08.890Z,30.03
2018-07-05T09:57:12.171Z,30.05
2018-07-05T09:58:09.877Z,30.06
2018-07-05T09:59:10.938Z,30.08
2018-07-05T10:00:10.798Z,30.11
2018-07-05T10:01:11.715Z,30.13
2018-07-05T10:02:12.617Z,30.16
2018-07-05T10:03:13.538Z,30.18
2018-07-05T10:04:14.570Z,30.19
2018-07-05T10:05:14.317Z,30.19
2018-07-05T10:06:15.125Z,30.20
2018-07-05T10:07:15.844Z,30.19
2018-07-05T10:08:17.852Z,30.19
2018-07-05T10:09:17.578Z,30.18
2018-07-05T10:10:19.340Z,30.17
2018-07-05T10:11:20.223Z,30.15
2018-07-05T10:12:21.066Z,30.14
2018-07-05T10:13:20.907Z,30.14
2018-07-05T10:14:21.745Z,30.14
2018-07-05T10:15:23.519Z,30.13
2018-07-05T10:16:24.293Z,30.13
2018-07-05T10:17:25.080Z,30.12
2018-07-05T10:18:24.928Z,30.12
2018-07-05T10:19:26.792Z,30.12
2018-07-05T10:20:26.494Z,30.12
2018-07-05T10:21:28.333Z,30.11
2018-07-05T10:22:28.151Z,30.11
2018-07-05T10:23:28.975Z,30.12
2018-07-05T10:24:30.796Z,30.12
2018-07-05T10:25:30.664Z,30.12
2018-07-05T10:26:32.523Z,30.11
2018-07-05T10:27:33.428Z,30.10
2018-07-05T10:28:33.303Z,30.08
2018-07-05T10:29:34.090Z,30.06
2018-07-05T10:30:34.874Z,30.04
2018-07-05T10:31:36.729Z,30.02
2018-07-05T10:32:37.497Z,29.99
2018-07-05T10:33:38.353Z,29.97
2018-07-05T10:34:40.298Z,29.95
2018-07-05T10:35:40.165Z,29.93
2018-07-05T10:36:39.852Z,29.91
2018-07-05T10:37:40.638Z,29.90
2018-07-05T10:38:42.413Z,29.88
2018-07-05T10:39:43.228Z,29.87
2018-07-05T10:40:42.996Z,29.86
2018-07-05T10:41:44.762Z,29.86
2018-07-05T10:42:45.556Z,29.86
2018-07-05T10:43:46.313Z,29.87
2018-07-05T10:44:47.119Z,29.89
2018-07-05T10:45:47.905Z,29.92
2018-07-05T10:46:48.672Z,29.94
2018-07-05T10:47:48.443Z,29.97
2018-07-05T10:48:50.220Z,29.98
2018-07-05T10:49:51.018Z,29.99
2018-07-05T10:50:51.800Z,30.00
2018-07-05T10:51:52.565Z,30.00
2018-07-05T10:52:54.340Z,30.00
2018-07-05T10:53:54.119Z,30.01
2018-07-05T10:54:54.912Z,30.01
2018-07-05T10:55:55.690Z,30.02
2018-07-05T10:56:56.455Z,30.04
2018-07-05T10:57:57.232Z,30.05
2018-07-05T10:58:57.998Z,30.06
2018-07-05T10:59:58.799Z,30.08
2018-07-05T11:00:59.622Z,30.08
2018-07-05T11:01:59.341Z,30.09
2018-07-05T11:03:01.114Z,30.08
2018-07-05T11:04:01.904Z,30.07
2018-07-05T11:05:02.687Z,30.06
2018-07-05T11:06:03.458Z,30.05
2018-07-05T11:07:04.334Z,30.04
2018-07-05T11:08:04.427Z,30.03
2018-07-05T11:09:05.645Z,30.02
2018-07-05T11:10:04.883Z,30.00
2018-07-05T11:11:05.187Z,29.99
2018-07-05T11:14:01.630Z,29.91
2018-07-05T11:15:02.393Z,29.90
2018-07-05T11:16:03.194Z,29.89
2018-07-05T11:17:03.968Z,29.90
2018-07-05T11:18:04.739Z,29.91
2018-07-05T11:19:05.511Z,29.91
2018-07-05T11:20:06.308Z,29.92
2018-07-05T11:21:07.101Z,29.92
2018-07-05T11:22:07.870Z,29.91
2018-07-05T11:23:08.642Z,29.91
2018-07-05T11:24:09.418Z,29.92
2018-07-05T11:25:10.200Z,29.91
2018-07-05T11:26:11.027Z,29.91
2018-07-05T11:27:11.768Z,29.91
2018-07-05T11:28:12.542Z,29.92
2018-07-05T11:29:13.312Z,29.93
2018-07-05T11:30:14.125Z,29.94
2018-07-05T11:31:13.889Z,29.95
2018-07-05T11:32:17.835Z,29.97
2018-07-05T11:33:15.434Z,29.98
2018-07-05T11:34:17.216Z,29.98
2018-07-05T11:35:17.986Z,29.97
2018-07-05T11:36:18.826Z,29.98
2018-07-05T11:37:18.553Z,29.99
2018-07-05T11:38:20.323Z,30.00
2018-07-05T11:39:21.095Z,30.02
2018-07-05T11:40:21.876Z,30.04
2018-07-05T11:41:22.674Z,30.06
2018-07-05T11:42:23.458Z,30.08
2018-07-05T11:43:23.219Z,30.09
2018-07-05T11:44:25.035Z,30.10
2018-07-05T11:45:25.802Z,30.12
2018-07-05T11:46:26.600Z,30.13
2018-07-05T11:47:27.428Z,30.15
2018-07-05T11:48:27.186Z,30.16
2018-07-05T11:49:28.934Z,30.17
2018-07-05T11:50:29.708Z,30.18
2018-07-05T11:51:30.510Z,30.19
2018-07-05T11:52:31.277Z,30.20
2018-07-05T11:53:32.048Z,30.22
2018-07-05T11:54:32.820Z,30.23
2018-07-05T11:55:33.600Z,30.24
2018-07-05T11:56:34.401Z,30.25
2018-07-05T11:57:35.171Z,30.25
2018-07-05T11:58:35.964Z,30.25
2018-07-05T11:59:41.937Z,30.25
2018-07-05T12:00:36.281Z,30.25
2018-07-05T12:01:38.054Z,30.25
2018-07-05T12:02:38.828Z,30.26
2018-07-05T12:03:39.605Z,30.27
2018-07-05T12:04:40.416Z,30.29
2018-07-05T12:05:40.164Z,30.32
2018-07-05T12:06:41.959Z,30.35
2018-07-05T12:07:42.725Z,30.38
2018-07-05T12:08:43.568Z,30.42
2018-07-05T12:09:43.271Z,30.50
2018-07-05T12:10:45.056Z,30.57
2018-07-05T12:11:45.850Z,30.64
2018-07-05T12:12:46.623Z,30.74
2018-07-05T12:13:47.409Z,30.85
2018-07-05T12:14:48.188Z,30.97
2018-07-05T12:15:48.983Z,31.08
2018-07-05T12:16:49.781Z,31.18
2018-07-05T12:17:50.572Z,31.26
2018-07-05T12:18:51.321Z,31.32
2018-07-05T12:19:52.133Z,31.35
2018-07-05T12:20:51.877Z,31.38
2018-07-05T12:21:53.672Z,31.40
2018-07-05T12:22:54.442Z,31.43
2018-07-05T12:23:55.229Z,31.44
2018-07-05T12:24:55.996Z,31.45
2018-07-05T12:25:56.792Z,31.45
2018-07-05T12:26:57.618Z,31.44
2018-07-05T12:27:58.382Z,31.43
2018-07-05T12:28:59.211Z,31.42
2018-07-05T12:29:58.929Z,31.41
2018-07-05T12:31:00.697Z,31.41
2018-07-05T12:32:01.504Z,31.41
2018-07-05T12:33:02.280Z,31.42
2018-07-05T12:34:03.053Z,31.42
2018-07-05T12:35:03.822Z,31.42
2018-07-05T12:36:04.598Z,31.40
2018-07-05T12:37:05.387Z,31.37
2018-07-05T12:38:06.214Z,31.33
2018-07-05T12:39:05.942Z,31.29
2018-07-05T12:40:07.715Z,31.25
2018-07-05T12:41:08.491Z,31.20
2018-07-05T12:42:09.291Z,31.14
2018-07-05T12:43:10.064Z,31.08
2018-07-05T12:44:10.838Z,31.01
2018-07-05T12:45:11.606Z,30.93
2018-07-05T12:46:12.391Z,30.85
2018-07-05T12:47:13.203Z,30.77
2018-07-05T12:48:13.968Z,30.70
2018-07-05T12:49:14.747Z,30.62
2018-07-05T12:50:18.286Z,30.55
2018-07-05T12:51:16.050Z,30.48
2018-07-05T12:52:16.841Z,30.42
2018-07-05T12:53:17.618Z,30.36
2018-07-05T12:54:18.391Z,30.30
2018-07-05T12:55:19.166Z,30.24
2018-07-05T12:56:19.936Z,30.19
2018-07-05T12:57:20.748Z,30.15
2018-07-05T12:58:21.518Z,30.09
2018-07-05T12:59:22.290Z,30.03
2018-07-05T13:00:23.062Z,29.97
2018-07-05T13:01:23.840Z,29.92
2018-07-05T13:02:24.644Z,29.86
2018-07-05T13:03:25.422Z,29.80
2018-07-05T13:04:26.212Z,29.75
2018-07-05T13:05:25.967Z,29.69
2018-07-05T13:06:27.737Z,29.63
2018-07-05T13:07:28.535Z,29.57
2018-07-05T13:08:29.313Z,29.52
2018-07-05T13:09:30.095Z,29.46
2018-07-05T13:10:30.872Z,29.41
2018-07-05T13:11:32.028Z,29.36
2018-07-05T13:12:48.071Z,28.74
2018-07-05T13:13:47.758Z,28.73
2018-07-05T13:14:49.532Z,28.73
2018-07-05T13:15:50.310Z,28.73
2018-07-05T13:16:51.082Z,28.73
2018-07-05T13:17:51.877Z,28.73
2018-07-05T13:18:52.648Z,28.73
2018-07-05T13:19:53.425Z,28.74
2018-07-05T13:20:54.197Z,28.75
2018-07-05T13:21:54.968Z,28.77
2018-07-05T13:22:57.286Z,28.78
2018-07-05T13:23:56.070Z,28.80
2018-07-05T13:24:56.825Z,28.80
2018-07-05T13:25:57.596Z,28.81
2018-07-05T13:26:58.374Z,28.81
2018-07-05T13:27:59.177Z,28.82
2018-07-05T13:28:59.944Z,28.82
2018-07-05T13:30:00.717Z,28.83
2018-07-05T13:31:01.493Z,28.85
2018-07-05T13:32:02.263Z,28.86
2018-07-05T13:33:03.661Z,28.88
2018-07-05T13:34:02.409Z,28.89
2018-07-05T13:35:04.177Z,28.89
2018-07-05T13:36:04.950Z,28.90
2018-07-05T13:37:05.725Z,28.90
2018-07-05T13:38:06.515Z,28.91
2018-07-05T13:39:07.285Z,28.90
2018-07-05T13:40:08.063Z,28.90
2018-07-05T13:41:08.840Z,28.89
2018-07-05T13:42:09.617Z,28.88
2018-07-05T13:43:10.950Z,28.86
2018-07-05T13:44:10.722Z,28.84
2018-07-05T13:45:11.499Z,28.80
2018-07-05T13:46:12.294Z,28.77
2018-07-05T13:47:13.115Z,28.72
2018-07-05T13:48:12.850Z,28.68
2018-07-05T13:49:14.631Z,28.64
2018-07-05T13:50:15.409Z,28.61
2018-07-05T13:51:16.186Z,28.58
2018-07-05T13:52:15.946Z,28.57
2018-07-05T13:53:17.757Z,28.56
2018-07-05T13:54:18.526Z,28.55
2018-07-05T13:55:19.297Z,28.55
2018-07-05T13:56:20.073Z,28.54
2018-07-05T13:57:20.871Z,28.55
2018-07-05T13:58:21.654Z,28.55
2018-07-05T13:59:22.433Z,28.55
2018-07-05T14:00:23.207Z,28.54
2018-07-05T14:01:23.972Z,28.54
2018-07-05T14:02:25.743Z,28.54
2018-07-05T14:03:25.547Z,28.53
2018-07-05T14:04:26.314Z,28.53
2018-07-05T14:05:27.097Z,28.52
2018-07-05T14:06:27.856Z,28.52
2018-07-05T14:07:28.644Z,28.51
2018-07-05T14:08:29.434Z,28.50
2018-07-05T14:09:30.203Z,28.49
2018-07-05T14:10:30.976Z,28.48
2018-07-05T14:11:31.747Z,28.46
2018-07-05T14:12:32.527Z,28.45
2018-07-05T14:13:33.330Z,28.43
2018-07-05T14:14:34.095Z,28.41
2018-07-05T14:15:33.879Z,28.39
2018-07-05T14:16:35.653Z,28.36
2018-07-05T14:17:36.433Z,28.33
2018-07-05T14:18:37.231Z,28.30
2018-07-05T14:19:38.007Z,28.26
2018-07-05T14:20:38.779Z,28.22
2018-07-05T14:21:39.551Z,28.18
2018-07-05T14:22:40.321Z,28.15
2018-07-05T14:23:41.121Z,28.11
2018-07-05T14:24:42.001Z,28.07
2018-07-05T14:25:41.672Z,28.03
2018-07-05T14:26:43.450Z,27.99
2018-07-05T14:27:44.219Z,27.95
2018-07-05T14:28:45.050Z,27.90
2018-07-05T14:29:45.816Z,27.86
2018-07-05T14:30:46.595Z,27.81
2018-07-05T14:31:47.363Z,27.77
2018-07-05T14:32:48.158Z,27.73
2018-07-05T14:33:48.943Z,27.68
2018-07-05T14:34:49.725Z,27.64
2018-07-05T14:35:51.500Z,27.60
2018-07-05T14:36:51.269Z,27.56
2018-07-05T14:37:52.042Z,27.53
2018-07-05T14:38:52.851Z,27.49
2018-07-05T14:39:53.731Z,27.45
2018-07-05T14:40:54.484Z,27.42
2018-07-05T14:41:55.248Z,27.39
2018-07-05T14:42:56.027Z,27.36
2018-07-05T14:43:56.829Z,27.33
2018-07-05T14:44:57.681Z,27.30
2018-07-05T14:45:57.370Z,27.27
2018-07-05T14:46:59.145Z,27.24
2018-07-05T14:47:59.920Z,27.21
2018-07-05T14:49:00.722Z,27.17
2018-07-05T14:50:01.500Z,27.14
2018-07-05T14:51:02.268Z,27.12
2018-07-05T14:52:03.045Z,27.10
2018-07-05T14:53:03.823Z,27.08
2018-07-05T14:54:04.617Z,27.07
2018-07-05T14:55:05.401Z,27.05
2018-07-05T14:56:06.164Z,27.02
2018-07-05T14:57:06.939Z,27.00
2018-07-05T14:58:07.708Z,26.99
2018-07-05T14:59:08.524Z,26.98
2018-07-05T15:00:09.292Z,26.98
2018-07-05T15:01:10.075Z,26.97
2018-07-05T15:02:10.831Z,26.97
2018-07-05T15:03:11.614Z,26.95
2018-07-05T15:04:12.434Z,26.95
2018-07-05T15:05:12.187Z,26.95
2018-07-05T15:06:14.058Z,26.94
2018-07-05T15:07:14.180Z,26.94
2018-07-05T15:08:15.380Z,26.94
2018-07-05T15:09:16.050Z,26.94
2018-07-05T15:10:15.272Z,26.93
2018-07-05T15:12:09.807Z,26.83
2018-07-05T15:13:10.583Z,26.81
2018-07-05T15:14:11.354Z,26.81
2018-07-05T15:15:12.149Z,26.81
2018-07-05T15:16:12.923Z,26.81
2018-07-05T15:17:13.694Z,26.81
2018-07-05T15:18:14.516Z,26.82
2018-07-05T15:19:14.253Z,26.82
2018-07-05T15:20:16.056Z,26.83
2018-07-05T15:21:16.824Z,26.83
2018-07-05T15:22:17.605Z,26.83
2018-07-05T15:23:18.371Z,26.83
2018-07-05T15:24:19.204Z,26.83
2018-07-05T15:25:18.941Z,26.83
2018-07-05T15:26:20.710Z,26.84
2018-07-05T15:27:21.507Z,26.83
2018-07-05T15:28:22.480Z,26.83
2018-07-05T15:29:22.184Z,26.84
2018-07-05T15:30:23.984Z,26.84
2018-07-05T15:31:24.749Z,26.85
2018-07-05T15:32:25.529Z,26.86
2018-07-05T15:33:26.299Z,26.88
2018-07-05T15:34:27.073Z,26.89
2018-07-05T15:35:27.882Z,26.90
2018-07-05T15:36:28.649Z,26.91
2018-07-05T15:37:29.434Z,26.93
2018-07-05T15:38:30.220Z,26.94
2018-07-05T15:39:31.980Z,26.95
2018-07-05T15:40:31.801Z,26.96
2018-07-05T15:41:32.551Z,26.96
2018-07-05T15:42:33.338Z,26.97
2018-07-05T15:43:34.129Z,26.96
2018-07-05T19:19:49.117Z,24.56
2018-07-05T19:20:46.268Z,24.55
2018-07-05T19:21:48.107Z,24.55
2018-07-05T19:24:58.197Z,24.57
2018-07-05T19:26:55.241Z,24.55
2018-07-05T19:26:59.173Z,24.55
2018-07-05T19:27:59.837Z,24.56
2018-07-05T19:29:13.960Z,24.56
2018-07-05T19:29:57.375Z,24.56
2018-07-05T19:31:07.328Z,24.56
2018-07-05T19:31:58.416Z,24.56
2018-07-05T19:33:02.673Z,24.56
2018-07-05T19:34:00.031Z,24.56
2018-07-05T19:35:38.396Z,24.56
2018-07-05T19:36:50.457Z,24.48
2018-07-05T19:37:49.266Z,24.45
2018-07-05T19:39:47.858Z,24.44
2018-07-05T19:40:50.640Z,24.43
2018-07-05T19:41:06.512Z,24.45
2018-07-05T19:41:59.619Z,24.41
2018-07-05T19:45:04.924Z,24.37
2018-07-05T19:45:55.068Z,24.36
2018-07-05T19:47:00.177Z,24.36
2018-07-05T19:48:07.247Z,24.35
2018-07-05T19:49:02.308Z,24.35
2018-07-05T19:50:10.597Z,24.34
2018-07-05T19:51:02.297Z,24.33
2018-07-05T19:52:04.932Z,24.32
2018-07-05T19:53:59.315Z,24.30
2018-07-05T19:55:00.101Z,24.28
2018-07-05T19:56:18.711Z,24.27
2018-07-05T19:56:59.254Z,24.26
2018-07-05T19:58:07.276Z,24.26
2018-07-05T19:59:02.915Z,24.26
2018-07-05T20:00:01.604Z,24.26
2018-07-05T20:01:04.615Z,24.26
2018-07-05T20:03:25.097Z,24.25
2018-07-05T20:04:12.157Z,24.25
2018-07-05T20:05:08.222Z,24.24
2018-07-05T20:06:11.855Z,24.24
2018-07-05T20:07:09.974Z,24.23
2018-07-05T20:08:03.904Z,24.25
2018-07-05T20:08:17.129Z,24.23
2018-07-05T20:11:47.733Z,24.21
2018-07-05T20:11:48.753Z,24.22
2018-07-05T20:11:50.801Z,24.22
2018-07-05T20:12:45.863Z,24.31
2018-07-05T20:14:44.650Z,24.21
2018-07-05T20:15:07.938Z,24.20
2018-07-05T20:15:59.559Z,24.20
2018-07-05T20:16:54.050Z,24.19
2018-07-05T20:17:14.310Z,24.18
2018-07-05T20:18:00.210Z,24.21
2018-07-05T20:18:35.471Z,24.16
2018-07-05T20:19:39.013Z,24.15
2018-07-05T20:20:26.851Z,24.13
2018-07-05T20:21:17.217Z,24.12
2018-07-05T20:22:26.589Z,24.11
2018-07-05T20:23:19.780Z,24.10
2018-07-05T20:24:44.247Z,24.10
2018-07-05T20:25:20.619Z,24.09
2018-07-05T20:26:21.388Z,24.09
2018-07-05T20:27:30.849Z,24.09
2018-07-05T20:28:23.245Z,24.09
2018-07-05T20:29:30.254Z,24.09
2018-07-05T20:30:48.182Z,24.09
2018-07-05T20:31:24.351Z,24.09
2018-07-05T20:32:28.545Z,24.09
2018-07-05T20:33:28.715Z,24.09
2018-07-05T20:34:26.550Z,24.09
2018-07-05T20:35:27.351Z,24.09
2018-07-05T20:36:28.154Z,24.09
2018-07-05T20:38:09.862Z,24.09
2018-07-05T20:41:59.273Z,24.07
2018-07-05T20:42:37.709Z,24.06
2018-07-05T20:43:33.480Z,24.06
2018-07-05T20:43:50.432Z,24.07
2018-07-05T20:44:34.235Z,24.05
2018-07-05T20:45:38.097Z,24.05
2018-07-05T20:46:43.148Z,24.04
2018-07-05T20:47:33.261Z,24.08
2018-07-05T20:47:45.867Z,24.03
2018-07-05T20:48:46.883Z,24.02
2018-07-05T20:49:40.848Z,24.00
2018-07-05T20:50:55.869Z,23.99
2018-07-05T20:52:00.643Z,23.98
2018-07-05T20:52:42.454Z,23.98
2018-07-05T20:53:48.056Z,23.97
2018-07-05T20:54:00.216Z,24.08
2018-07-05T20:54:41.803Z,23.96
2018-07-05T20:55:44.971Z,23.95
2018-07-05T20:56:50.610Z,23.94
2018-07-05T20:57:44.224Z,23.94
2018-07-05T20:58:52.637Z,23.94
2018-07-05T20:59:48.614Z,23.93
2018-07-05T21:00:49.197Z,23.93
2018-07-05T21:01:47.005Z,23.93
2018-07-05T21:03:02.052Z,23.93
2018-07-05T21:04:56.176Z,23.93
2018-07-05T21:05:49.748Z,23.92
2018-07-05T21:06:09.976Z,23.93
2018-07-05T21:06:58.760Z,23.91
2018-07-05T21:07:59.546Z,23.90
2018-07-05T21:08:52.204Z,23.89
2018-07-05T21:09:55.413Z,23.88
2018-07-05T21:10:53.842Z,23.87
2018-07-05T21:11:54.593Z,23.85
2018-07-05T21:12:56.392Z,23.84
2018-07-05T21:13:59.640Z,23.83
2018-07-05T21:15:04.289Z,23.82
2018-07-05T21:16:02.133Z,23.81
2018-07-05T21:17:07.605Z,23.81
2018-07-05T21:18:01.759Z,23.80
2018-07-05T21:19:02.655Z,23.79
2018-07-05T21:20:01.371Z,23.79
2018-07-05T21:21:04.309Z,23.79
2018-07-05T21:22:03.013Z,23.79
2018-07-05T21:23:03.847Z,23.78
2018-07-05T21:24:04.643Z,23.77
2018-07-05T21:25:05.394Z,23.76
2018-07-05T21:26:07.264Z,23.75
2018-07-05T21:27:09.529Z,23.72
2018-07-05T21:28:07.884Z,23.70
2018-07-05T21:29:11.135Z,23.68
2018-07-05T21:30:16.696Z,23.67
2018-07-05T21:31:10.472Z,23.66
2018-07-05T21:32:11.255Z,23.65
2018-07-05T21:33:12.151Z,23.64
2018-07-05T21:34:12.991Z,23.63
2018-07-05T21:35:13.809Z,23.62
2018-07-05T21:36:14.593Z,23.61
2018-07-05T21:37:19.313Z,23.59
2018-07-05T21:38:16.099Z,23.58
2018-07-05T21:39:16.984Z,23.57
2018-07-05T21:40:17.839Z,23.56
2018-07-05T21:41:18.687Z,23.55
2018-07-05T21:42:19.473Z,23.54
2018-07-05T21:43:20.289Z,23.53
2018-07-05T21:44:21.178Z,23.52
2018-07-05T21:45:21.999Z,23.52
2018-07-05T21:46:22.820Z,23.51
2018-07-05T21:47:30.870Z,23.50
2018-07-05T21:48:24.422Z,23.49
2018-07-05T21:49:26.249Z,23.48
2018-07-05T21:50:26.060Z,23.48
2018-07-05T21:51:26.804Z,23.47
2018-07-05T21:52:28.605Z,23.46
2018-07-05T21:53:31.819Z,23.46
2018-07-05T21:54:29.358Z,23.46
2018-07-05T21:55:33.128Z,23.46
2018-07-05T21:56:30.937Z,23.45
2018-07-05T21:57:31.715Z,23.45
2018-07-05T21:58:32.579Z,23.45
2018-07-05T21:59:35.548Z,23.45
2018-07-05T22:00:34.236Z,23.44
2018-07-05T22:01:39.402Z,23.44
2018-07-05T22:02:35.937Z,23.44
2018-07-05T22:03:36.712Z,23.44
2018-07-05T22:04:37.475Z,23.44
2018-07-05T22:05:39.374Z,23.44
2018-07-05T22:06:41.774Z,23.44
2018-07-05T22:07:51.310Z,23.45
2018-07-05T22:08:40.859Z,23.45
2018-07-05T22:10:45.310Z,23.44
2018-07-05T22:11:43.269Z,23.43
2018-07-05T22:12:44.096Z,23.43
2018-07-05T22:13:47.036Z,23.42
2018-07-05T22:14:45.829Z,23.42
2018-07-05T22:15:46.609Z,23.42
2018-07-05T22:16:48.410Z,23.42
2018-07-05T22:17:50.474Z,23.42
2018-07-05T22:18:48.932Z,23.42
2018-07-05T22:19:52.971Z,23.43
2018-07-05T22:20:55.026Z,23.43
2018-07-05T22:21:51.519Z,23.44
2018-07-05T22:22:52.378Z,23.44
2018-07-05T22:23:53.163Z,23.44
2018-07-05T22:24:08.392Z,23.44
2018-07-05T22:24:54.081Z,23.45
2018-07-05T22:26:02.179Z,23.45
2018-07-05T22:26:55.744Z,23.45
2018-07-05T22:27:56.525Z,23.45
2018-07-05T22:28:57.278Z,23.45
2018-07-05T22:29:59.060Z,23.46
2018-07-05T22:30:58.853Z,23.46
2018-07-05T22:32:00.758Z,23.47
2018-07-05T22:33:00.527Z,23.48
2018-07-05T22:34:01.372Z,23.48
2018-07-05T22:35:02.258Z,23.49
2018-07-05T22:36:03.108Z,23.49
2018-07-05T22:37:03.892Z,23.50
2018-07-05T22:38:04.643Z,23.50
2018-07-05T22:39:08.616Z,23.51
2018-07-05T22:40:06.386Z,23.51
2018-07-05T22:41:07.197Z,23.52
2018-07-05T22:42:07.920Z,23.52
2018-07-05T22:43:16.895Z,23.52
2018-07-05T22:44:26.956Z,23.53
2018-07-05T22:45:10.307Z,23.53
2018-07-05T22:46:12.076Z,23.53
2018-07-05T22:47:12.864Z,23.52
2018-07-05T22:48:13.627Z,23.51
2018-07-05T22:49:14.398Z,23.51
2018-07-05T22:50:15.198Z,23.50
2018-07-05T22:51:15.971Z,23.50
2018-07-05T22:52:16.746Z,23.50
2018-07-05T22:53:17.516Z,23.49
2018-07-05T22:54:18.303Z,23.49
2018-07-05T22:55:19.096Z,23.49
2018-07-05T22:56:19.868Z,23.49
2018-07-05T22:57:20.637Z,23.49
2018-07-05T22:58:21.419Z,23.49
2018-07-05T22:59:22.189Z,23.48
2018-07-05T23:00:22.977Z,23.48
2018-07-05T23:01:23.749Z,23.47
2018-07-05T23:02:24.548Z,23.47
2018-07-05T23:03:25.295Z,23.46
2018-07-05T23:04:29.227Z,23.45
2018-07-05T23:05:27.024Z,23.44
2018-07-05T23:06:27.805Z,23.44
2018-07-05T23:07:28.573Z,23.43
2018-07-05T23:08:29.350Z,23.43
2018-07-05T23:09:30.123Z,23.42
2018-07-05T23:10:30.928Z,23.42
2018-07-05T23:11:31.700Z,23.42
2018-07-05T23:12:32.476Z,23.41
2018-07-05T23:13:33.246Z,23.41
2018-07-05T23:14:34.025Z,23.41
2018-07-05T23:15:34.820Z,23.41
2018-07-05T23:16:35.592Z,23.40
2018-07-05T23:17:36.361Z,23.40
2018-07-05T23:18:37.147Z,23.39
2018-07-05T23:19:37.925Z,23.38
2018-07-05T23:20:38.724Z,23.38
2018-07-05T23:21:39.494Z,23.37
2018-07-05T23:22:40.284Z,23.36
2018-07-05T23:23:41.038Z,23.36
2018-07-05T23:24:41.806Z,23.35
2018-07-05T23:25:42.603Z,23.35
2018-07-05T23:26:43.384Z,23.34
2018-07-05T23:27:44.156Z,23.32
2018-07-05T23:28:44.924Z,23.31
2018-07-05T23:29:45.703Z,23.29
2018-07-05T23:30:46.503Z,23.28
2018-07-05T23:31:47.280Z,23.28
2018-07-05T23:32:48.049Z,23.28
2018-07-05T23:33:48.822Z,23.27
2018-07-05T23:34:49.600Z,23.27
2018-07-05T23:35:50.395Z,23.27
2018-07-05T23:36:51.177Z,23.26
2018-07-05T23:37:51.947Z,23.25
2018-07-05T23:38:52.745Z,23.24
2018-07-05T23:39:53.525Z,23.23
2018-07-05T23:40:54.300Z,23.22
2018-07-05T23:41:55.078Z,23.20
2018-07-05T23:42:55.854Z,23.19
2018-07-05T23:43:56.630Z,23.19
2018-07-05T23:44:57.426Z,23.18
2018-07-05T23:45:57.302Z,23.18
2018-07-05T23:46:36.462Z,23.09
2018-07-05T23:47:37.324Z,23.06
2018-07-05T23:48:37.028Z,23.05
2018-07-05T23:49:38.796Z,23.04
2018-07-05T23:50:39.574Z,23.03
2018-07-05T23:51:40.375Z,23.02
2018-07-05T23:52:41.153Z,23.01
2018-07-05T23:53:41.920Z,23.00
2018-07-05T23:54:42.728Z,22.99
2018-07-05T23:55:43.481Z,22.98
2018-07-05T23:56:44.296Z,22.98
2018-07-05T23:57:45.063Z,22.97
2018-07-05T23:58:45.859Z,22.95
2018-07-05T23:59:46.615Z,22.94
